Terminal Aerodrome Forecast
Issued by NWS

Home | Current Version | Previous Version | Text Only | Print | Product List | Glossary Off
Versions: 1 2 3 4 5 6 7 8 9 10 11 12 13 14 15 16 17 18 19 20 21 22

029
FTUS43 KMPX 191128
TAFAXN
TAF
KAXN 191128Z 1912/2012 13011KT P6SM BKN250
     FM192000 14015G21KT P6SM BKN250
     FM200100 15013KT P6SM OVC250 WS020/18048KT
     FM200800 16013KT 4SM BR VCSH OVC007 WS017/20048KT=

USA.gov is the U.S. government's official web portal to all federal, state and local government web resources and services.